sensor_id;sensor_type;location;lat;lon;timestamp;P1;durP1;ratioP1;P2;durP2;ratioP2
22713;SDS011;11524;50.846;4.326;2022-10-16T00:01:45;3.40;;;1.52;;
22713;SDS011;11524;50.846;4.326;2022-10-16T00:04:11;3.05;;;1.40;;
22713;SDS011;11524;50.846;4.326;2022-10-16T00:06:37;2.03;;;1.35;;
22713;SDS011;11524;50.846;4.326;2022-10-16T00:09:03;2.72;;;1.70;;
22713;SDS011;11524;50.846;4.326;2022-10-16T00:11:31;3.67;;;1.67;;
22713;SDS011;11524;50.846;4.326;2022-10-16T00:13:59;6.10;;;1.65;;
22713;SDS011;11524;50.846;4.326;2022-10-16T00:16:26;1.67;;;1.30;;
22713;SDS011;11524;50.846;4.326;2022-10-16T00:18:53;2.75;;;1.52;;
22713;SDS011;11524;50.846;4.326;2022-10-16T00:21:21;2.30;;;1.67;;
22713;SDS011;11524;50.846;4.326;2022-10-16T00:23:51;2.50;;;1.45;;
22713;SDS011;11524;50.846;4.326;2022-10-16T00:26:18;2.08;;;1.60;;
22713;SDS011;11524;50.846;4.326;2022-10-16T00:28:45;2.38;;;1.40;;
22713;SDS011;11524;50.846;4.326;2022-10-16T00:31:12;2.50;;;1.40;;
22713;SDS011;11524;50.846;4.326;2022-10-16T00:33:39;2.35;;;1.50;;
22713;SDS011;11524;50.846;4.326;2022-10-16T00:36:06;1.95;;;1.45;;
22713;SDS011;11524;50.846;4.326;2022-10-16T00:38:33;2.08;;;1.35;;
22713;SDS011;11524;50.846;4.326;2022-10-16T00:40:59;2.58;;;1.63;;
22713;SDS011;11524;50.846;4.326;2022-10-16T00:48:35;2.75;;;1.40;;
22713;SDS011;11524;50.846;4.326;2022-10-16T00:51:01;1.98;;;1.40;;
22713;SDS011;11524;50.846;4.326;2022-10-16T00:53:27;2.70;;;1.45;;
22713;SDS011;11524;50.846;4.326;2022-10-16T00:55:53;1.88;;;1.20;;
22713;SDS011;11524;50.846;4.326;2022-10-16T00:58:19;2.42;;;1.40;;
22713;SDS011;11524;50.846;4.326;2022-10-16T01:00:45;2.25;;;1.50;;
22713;SDS011;11524;50.846;4.326;2022-10-16T01:03:25;2.72;;;1.30;;
22713;SDS011;11524;50.846;4.326;2022-10-16T01:05:54;2.05;;;1.30;;
22713;SDS011;11524;50.846;4.326;2022-10-16T01:08:44;1.50;;;1.30;;
22713;SDS011;11524;50.846;4.326;2022-10-16T01:11:30;2.15;;;1.40;;
22713;SDS011;11524;50.846;4.326;2022-10-16T01:13:58;1.98;;;1.20;;
22713;SDS011;11524;50.846;4.326;2022-10-16T01:16:39;1.60;;;1.20;;
22713;SDS011;11524;50.846;4.326;2022-10-16T01:19:17;2.63;;;1.27;;
22713;SDS011;11524;50.846;4.326;2022-10-16T01:21:54;2.22;;;1.10;;
22713;SDS011;11524;50.846;4.326;2022-10-16T01:27:23;1.50;;;1.25;;
22713;SDS011;11524;50.846;4.326;2022-10-16T01:29:53;2.25;;;1.33;;
22713;SDS011;11524;50.846;4.326;2022-10-16T01:38:00;3.00;;;1.05;;
22713;SDS011;11524;50.846;4.326;2022-10-16T01:40:27;1.42;;;1.30;;
22713;SDS011;11524;50.846;4.326;2022-10-16T01:42:56;2.25;;;1.23;;
22713;SDS011;11524;50.846;4.326;2022-10-16T01:45:44;2.90;;;1.30;;
22713;SDS011;11524;50.846;4.326;2022-10-16T01:48:12;1.35;;;1.20;;
22713;SDS011;11524;50.846;4.326;2022-10-16T01:50:41;2.22;;;1.20;;
22713;SDS011;11524;50.846;4.326;2022-10-16T01:53:09;2.22;;;1.20;;
22713;SDS011;11524;50.846;4.326;2022-10-16T01:55:38;3.80;;;1.27;;
22713;SDS011;11524;50.846;4.326;2022-10-16T01:58:10;2.25;;;1.20;;
22713;SDS011;11524;50.846;4.326;2022-10-16T02:00:38;1.55;;;1.30;;
22713;SDS011;11524;50.846;4.326;2022-10-16T02:03:07;2.13;;;1.08;;
22713;SDS011;11524;50.846;4.326;2022-10-16T02:05:46;2.78;;;1.40;;
22713;SDS011;11524;50.846;4.326;2022-10-16T02:08:15;1.75;;;1.10;;
22713;SDS011;11524;50.846;4.326;2022-10-16T02:10:41;1.75;;;1.20;;
22713;SDS011;11524;50.846;4.326;2022-10-16T02:13:15;2.67;;;1.30;;
22713;SDS011;11524;50.846;4.326;2022-10-16T02:15:50;1.13;;;1.02;;
22713;SDS011;11524;50.846;4.326;2022-10-16T02:18:16;1.40;;;1.00;;
22713;SDS011;11524;50.846;4.326;2022-10-16T02:26:01;2.17;;;1.20;;
22713;SDS011;11524;50.846;4.326;2022-10-16T02:28:34;2.75;;;1.10;;
22713;SDS011;11524;50.846;4.326;2022-10-16T02:31:08;1.27;;;1.00;;
22713;SDS011;11524;50.846;4.326;2022-10-16T02:33:36;2.45;;;1.25;;
22713;SDS011;11524;50.846;4.326;2022-10-16T02:36:05;2.58;;;1.10;;
22713;SDS011;11524;50.846;4.326;2022-10-16T02:38:31;1.58;;;1.20;;
22713;SDS011;11524;50.846;4.326;2022-10-16T02:40:58;1.75;;;1.10;;
22713;SDS011;11524;50.846;4.326;2022-10-16T02:43:24;1.83;;;1.20;;
22713;SDS011;11524;50.846;4.326;2022-10-16T02:45:51;1.42;;;1.20;;
22713;SDS011;11524;50.846;4.326;2022-10-16T02:48:16;1.33;;;1.05;;
22713;SDS011;11524;50.846;4.326;2022-10-16T02:50:42;3.45;;;1.10;;
22713;SDS011;11524;50.846;4.326;2022-10-16T02:53:07;1.83;;;1.02;;
22713;SDS011;11524;50.846;4.326;2022-10-16T02:55:33;1.17;;;0.80;;
22713;SDS011;11524;50.846;4.326;2022-10-16T02:57:58;0.95;;;0.85;;
22713;SDS011;11524;50.846;4.326;2022-10-16T03:00:24;2.20;;;1.00;;
22713;SDS011;11524;50.846;4.326;2022-10-16T03:02:49;0.88;;;0.82;;
22713;SDS011;11524;50.846;4.326;2022-10-16T03:05:15;2.90;;;1.10;;
22713;SDS011;11524;50.846;4.326;2022-10-16T03:07:41;1.88;;;1.00;;
22713;SDS011;11524;50.846;4.326;2022-10-16T03:10:07;1.63;;;1.15;;
22713;SDS011;11524;50.846;4.326;2022-10-16T03:12:33;1.40;;;1.00;;
22713;SDS011;11524;50.846;4.326;2022-10-16T03:14:58;2.08;;;0.93;;
22713;SDS011;11524;50.846;4.326;2022-10-16T03:17:24;1.40;;;1.27;;
22713;SDS011;11524;50.846;4.326;2022-10-16T03:19:50;1.13;;;0.98;;
22713;SDS011;11524;50.846;4.326;2022-10-16T03:22:16;1.63;;;0.90;;
22713;SDS011;11524;50.846;4.326;2022-10-16T03:24:42;1.63;;;1.13;;
22713;SDS011;11524;50.846;4.326;2022-10-16T03:27:07;1.58;;;0.98;;
22713;SDS011;11524;50.846;4.326;2022-10-16T03:29:33;2.22;;;0.82;;
22713;SDS011;11524;50.846;4.326;2022-10-16T03:31:59;1.98;;;0.90;;
22713;SDS011;11524;50.846;4.326;2022-10-16T03:34:24;2.42;;;1.02;;
22713;SDS011;11524;50.846;4.326;2022-10-16T03:36:50;2.28;;;1.02;;
22713;SDS011;11524;50.846;4.326;2022-10-16T03:39:16;1.73;;;0.90;;
22713;SDS011;11524;50.846;4.326;2022-10-16T03:41:42;1.50;;;1.10;;
22713;SDS011;11524;50.846;4.326;2022-10-16T03:44:07;1.30;;;1.00;;
22713;SDS011;11524;50.846;4.326;2022-10-16T03:46:33;0.93;;;0.90;;
22713;SDS011;11524;50.846;4.326;2022-10-16T03:48:59;1.83;;;0.85;;
22713;SDS011;11524;50.846;4.326;2022-10-16T03:51:24;1.15;;;0.93;;
22713;SDS011;11524;50.846;4.326;2022-10-16T03:53:50;1.92;;;1.08;;
22713;SDS011;11524;50.846;4.326;2022-10-16T03:56:15;1.95;;;1.10;;
22713;SDS011;11524;50.846;4.326;2022-10-16T03:58:41;1.33;;;0.75;;
22713;SDS011;11524;50.846;4.326;2022-10-16T04:01:06;1.17;;;0.80;;
22713;SDS011;11524;50.846;4.326;2022-10-16T04:03:32;1.42;;;0.80;;
22713;SDS011;11524;50.846;4.326;2022-10-16T04:05:58;1.77;;;0.95;;
22713;SDS011;11524;50.846;4.326;2022-10-16T04:08:24;1.63;;;0.90;;
22713;SDS011;11524;50.846;4.326;2022-10-16T04:10:49;1.27;;;0.90;;
22713;SDS011;11524;50.846;4.326;2022-10-16T04:13:15;1.38;;;0.80;;
22713;SDS011;11524;50.846;4.326;2022-10-16T04:15:41;1.52;;;1.00;;
22713;SDS011;11524;50.846;4.326;2022-10-16T04:18:07;2.50;;;1.10;;
22713;SDS011;11524;50.846;4.326;2022-10-16T04:20:33;1.15;;;0.95;;
22713;SDS011;11524;50.846;4.326;2022-10-16T04:22:59;1.73;;;0.93;;
22713;SDS011;11524;50.846;4.326;2022-10-16T04:25:24;1.25;;;0.93;;
22713;SDS011;11524;50.846;4.326;2022-10-16T04:27:52;1.70;;;0.77;;
22713;SDS011;11524;50.846;4.326;2022-10-16T04:30:18;3.33;;;0.90;;
22713;SDS011;11524;50.846;4.326;2022-10-16T04:32:47;1.10;;;0.70;;
22713;SDS011;11524;50.846;4.326;2022-10-16T04:35:13;0.63;;;0.63;;
22713;SDS011;11524;50.846;4.326;2022-10-16T04:37:39;1.10;;;0.90;;
22713;SDS011;11524;50.846;4.326;2022-10-16T04:40:05;1.15;;;0.80;;
22713;SDS011;11524;50.846;4.326;2022-10-16T04:42:30;0.90;;;0.75;;
22713;SDS011;11524;50.846;4.326;2022-10-16T04:44:56;1.55;;;1.00;;
22713;SDS011;11524;50.846;4.326;2022-10-16T04:47:22;1.17;;;0.88;;
22713;SDS011;11524;50.846;4.326;2022-10-16T04:49:47;1.42;;;1.02;;
22713;SDS011;11524;50.846;4.326;2022-10-16T04:52:13;1.70;;;0.88;;
22713;SDS011;11524;50.846;4.326;2022-10-16T04:54:38;1.60;;;1.00;;
22713;SDS011;11524;50.846;4.326;2022-10-16T04:57:04;1.08;;;0.70;;
22713;SDS011;11524;50.846;4.326;2022-10-16T04:59:29;2.88;;;1.00;;
22713;SDS011;11524;50.846;4.326;2022-10-16T05:01:55;3.08;;;1.20;;
22713;SDS011;11524;50.846;4.326;2022-10-16T05:04:21;2.55;;;0.98;;
22713;SDS011;11524;50.846;4.326;2022-10-16T05:06:47;1.17;;;0.85;;
22713;SDS011;11524;50.846;4.326;2022-10-16T05:09:13;1.98;;;1.17;;
22713;SDS011;11524;50.846;4.326;2022-10-16T05:11:38;1.20;;;1.00;;
22713;SDS011;11524;50.846;4.326;2022-10-16T05:14:04;4.57;;;0.90;;
22713;SDS011;11524;50.846;4.326;2022-10-16T05:16:29;4.45;;;1.10;;
22713;SDS011;11524;50.846;4.326;2022-10-16T05:18:55;2.08;;;0.85;;
22713;SDS011;11524;50.846;4.326;2022-10-16T05:21:21;2.33;;;1.10;;
22713;SDS011;11524;50.846;4.326;2022-10-16T05:23:47;3.58;;;1.00;;
22713;SDS011;11524;50.846;4.326;2022-10-16T05:26:13;2.47;;;0.80;;
22713;SDS011;11524;50.846;4.326;2022-10-16T05:28:38;1.45;;;0.80;;
22713;SDS011;11524;50.846;4.326;2022-10-16T05:31:05;3.65;;;0.90;;
22713;SDS011;11524;50.846;4.326;2022-10-16T05:33:31;2.75;;;0.93;;
22713;SDS011;11524;50.846;4.326;2022-10-16T05:36:00;4.25;;;1.25;;
22713;SDS011;11524;50.846;4.326;2022-10-16T05:38:31;1.42;;;1.10;;
22713;SDS011;11524;50.846;4.326;2022-10-16T05:40:56;1.98;;;0.90;;
22713;SDS011;11524;50.846;4.326;2022-10-16T05:43:22;1.98;;;0.80;;
22713;SDS011;11524;50.846;4.326;2022-10-16T05:45:58;3.05;;;1.15;;
22713;SDS011;11524;50.846;4.326;2022-10-16T05:48:26;3.70;;;1.08;;
22713;SDS011;11524;50.846;4.326;2022-10-16T05:50:59;0.90;;;0.80;;
22713;SDS011;11524;50.846;4.326;2022-10-16T05:53:30;1.33;;;0.93;;
22713;SDS011;11524;50.846;4.326;2022-10-16T05:55:57;0.93;;;0.90;;
22713;SDS011;11524;50.846;4.326;2022-10-16T05:58:23;1.67;;;0.90;;
22713;SDS011;11524;50.846;4.326;2022-10-16T06:01:09;3.13;;;1.00;;
22713;SDS011;11524;50.846;4.326;2022-10-16T06:03:39;1.58;;;1.10;;
22713;SDS011;11524;50.846;4.326;2022-10-16T06:06:14;2.20;;;0.90;;
22713;SDS011;11524;50.846;4.326;2022-10-16T06:08:43;3.08;;;0.90;;
22713;SDS011;11524;50.846;4.326;2022-10-16T06:11:11;1.10;;;0.80;;
22713;SDS011;11524;50.846;4.326;2022-10-16T06:13:39;1.23;;;1.00;;
22713;SDS011;11524;50.846;4.326;2022-10-16T06:16:11;6.57;;;1.10;;
22713;SDS011;11524;50.846;4.326;2022-10-16T06:18:37;1.83;;;0.88;;
22713;SDS011;11524;50.846;4.326;2022-10-16T06:21:07;2.90;;;1.10;;
22713;SDS011;11524;50.846;4.326;2022-10-16T06:23:37;1.23;;;0.80;;
22713;SDS011;11524;50.846;4.326;2022-10-16T06:26:10;1.45;;;0.90;;
22713;SDS011;11524;50.846;4.326;2022-10-16T06:28:37;4.15;;;1.02;;
22713;SDS011;11524;50.846;4.326;2022-10-16T06:31:04;2.05;;;0.93;;
22713;SDS011;11524;50.846;4.326;2022-10-16T06:33:32;1.70;;;1.25;;
22713;SDS011;11524;50.846;4.326;2022-10-16T06:36:01;1.85;;;0.95;;
22713;SDS011;11524;50.846;4.326;2022-10-16T06:38:32;1.67;;;0.95;;
22713;SDS011;11524;50.846;4.326;2022-10-16T06:40:58;1.70;;;1.00;;
22713;SDS011;11524;50.846;4.326;2022-10-16T06:43:24;4.05;;;1.13;;
22713;SDS011;11524;50.846;4.326;2022-10-16T06:45:50;3.00;;;1.13;;
22713;SDS011;11524;50.846;4.326;2022-10-16T06:48:19;3.42;;;1.00;;
22713;SDS011;11524;50.846;4.326;2022-10-16T06:53:45;2.85;;;1.70;;
22713;SDS011;11524;50.846;4.326;2022-10-16T06:56:24;2.22;;;1.17;;
22713;SDS011;11524;50.846;4.326;2022-10-16T06:58:51;2.78;;;1.48;;
22713;SDS011;11524;50.846;4.326;2022-10-16T07:01:18;3.75;;;1.33;;
22713;SDS011;11524;50.846;4.326;2022-10-16T07:03:47;3.92;;;1.50;;
22713;SDS011;11524;50.846;4.326;2022-10-16T07:06:15;4.63;;;1.38;;
22713;SDS011;11524;50.846;4.326;2022-10-16T07:08:45;5.97;;;1.30;;
22713;SDS011;11524;50.846;4.326;2022-10-16T07:11:12;4.30;;;1.50;;
22713;SDS011;11524;50.846;4.326;2022-10-16T07:13:41;4.57;;;2.00;;
22713;SDS011;11524;50.846;4.326;2022-10-16T07:16:09;7.03;;;1.52;;
22713;SDS011;11524;50.846;4.326;2022-10-16T07:18:36;4.90;;;1.70;;
22713;SDS011;11524;50.846;4.326;2022-10-16T07:21:07;4.57;;;1.67;;
22713;SDS011;11524;50.846;4.326;2022-10-16T07:23:35;4.80;;;1.73;;
22713;SDS011;11524;50.846;4.326;2022-10-16T07:26:01;4.75;;;1.55;;
22713;SDS011;11524;50.846;4.326;2022-10-16T07:28:28;3.30;;;1.42;;
22713;SDS011;11524;50.846;4.326;2022-10-16T07:30:53;4.22;;;1.60;;
22713;SDS011;11524;50.846;4.326;2022-10-16T07:33:19;3.03;;;1.52;;
22713;SDS011;11524;50.846;4.326;2022-10-16T07:35:48;4.90;;;1.58;;
22713;SDS011;11524;50.846;4.326;2022-10-16T07:38:18;2.80;;;1.38;;
22713;SDS011;11524;50.846;4.326;2022-10-16T07:40:45;3.92;;;1.20;;
22713;SDS011;11524;50.846;4.326;2022-10-16T07:43:11;3.33;;;1.40;;
22713;SDS011;11524;50.846;4.326;2022-10-16T07:45:37;3.15;;;1.00;;
22713;SDS011;11524;50.846;4.326;2022-10-16T07:48:10;2.05;;;1.30;;
22713;SDS011;11524;50.846;4.326;2022-10-16T07:50:36;3.20;;;1.13;;
22713;SDS011;11524;50.846;4.326;2022-10-16T07:53:02;2.90;;;1.33;;
22713;SDS011;11524;50.846;4.326;2022-10-16T07:55:28;4.07;;;1.35;;
22713;SDS011;11524;50.846;4.326;2022-10-16T07:57:54;1.50;;;1.10;;
22713;SDS011;11524;50.846;4.326;2022-10-16T08:00:20;2.22;;;1.38;;
22713;SDS011;11524;50.846;4.326;2022-10-16T08:02:45;3.53;;;1.13;;
22713;SDS011;11524;50.846;4.326;2022-10-16T08:05:11;2.67;;;1.08;;
22713;SDS011;11524;50.846;4.326;2022-10-16T08:07:37;3.40;;;1.02;;
22713;SDS011;11524;50.846;4.326;2022-10-16T08:10:03;4.45;;;1.20;;
22713;SDS011;11524;50.846;4.326;2022-10-16T08:12:29;4.90;;;1.45;;
22713;SDS011;11524;50.846;4.326;2022-10-16T08:14:54;3.97;;;1.20;;
22713;SDS011;11524;50.846;4.326;2022-10-16T08:17:20;3.13;;;1.00;;
22713;SDS011;11524;50.846;4.326;2022-10-16T08:19:46;3.10;;;1.30;;
22713;SDS011;11524;50.846;4.326;2022-10-16T08:22:13;2.00;;;0.90;;
22713;SDS011;11524;50.846;4.326;2022-10-16T08:24:39;2.47;;;1.10;;
22713;SDS011;11524;50.846;4.326;2022-10-16T08:27:05;3.60;;;1.20;;
22713;SDS011;11524;50.846;4.326;2022-10-16T08:29:31;2.55;;;1.00;;
22713;SDS011;11524;50.846;4.326;2022-10-16T08:31:57;3.60;;;1.20;;
22713;SDS011;11524;50.846;4.326;2022-10-16T08:34:25;3.80;;;1.50;;
22713;SDS011;11524;50.846;4.326;2022-10-16T08:36:53;8.00;;;1.73;;
22713;SDS011;11524;50.846;4.326;2022-10-16T08:39:19;5.57;;;1.60;;
22713;SDS011;11524;50.846;4.326;2022-10-16T08:42:01;4.15;;;1.88;;
22713;SDS011;11524;50.846;4.326;2022-10-16T08:44:45;4.63;;;1.75;;
22713;SDS011;11524;50.846;4.326;2022-10-16T08:47:26;4.88;;;1.77;;
22713;SDS011;11524;50.846;4.326;2022-10-16T08:50:32;4.22;;;1.30;;
22713;SDS011;11524;50.846;4.326;2022-10-16T08:53:01;2.42;;;1.13;;
22713;SDS011;11524;50.846;4.326;2022-10-16T08:55:36;3.85;;;1.70;;
22713;SDS011;11524;50.846;4.326;2022-10-16T08:58:15;2.67;;;1.33;;
22713;SDS011;11524;50.846;4.326;2022-10-16T09:00:46;3.60;;;1.33;;
22713;SDS011;11524;50.846;4.326;2022-10-16T09:17:59;7.93;;;1.30;;
22713;SDS011;11524;50.846;4.326;2022-10-16T09:21:06;8.20;;;1.27;;
22713;SDS011;11524;50.846;4.326;2022-10-16T09:23:39;2.53;;;1.30;;
22713;SDS011;11524;50.846;4.326;2022-10-16T09:26:05;2.45;;;1.17;;
22713;SDS011;11524;50.846;4.326;2022-10-16T09:28:34;4.72;;;1.20;;
22713;SDS011;11524;50.846;4.326;2022-10-16T09:31:00;5.40;;;1.20;;
22713;SDS011;11524;50.846;4.326;2022-10-16T09:33:28;2.80;;;1.60;;
22713;SDS011;11524;50.846;4.326;2022-10-16T09:36:04;5.15;;;1.30;;
22713;SDS011;11524;50.846;4.326;2022-10-16T09:38:32;5.93;;;1.40;;
22713;SDS011;11524;50.846;4.326;2022-10-16T09:41:01;1.25;;;1.00;;
22713;SDS011;11524;50.846;4.326;2022-10-16T09:43:46;4.28;;;1.20;;
22713;SDS011;11524;50.846;4.326;2022-10-16T09:46:31;3.42;;;1.00;;
22713;SDS011;11524;50.846;4.326;2022-10-16T09:49:02;2.47;;;1.00;;
22713;SDS011;11524;50.846;4.326;2022-10-16T09:51:38;5.82;;;1.30;;
22713;SDS011;11524;50.846;4.326;2022-10-16T09:56:32;2.05;;;1.10;;
22713;SDS011;11524;50.846;4.326;2022-10-16T09:59:17;9.88;;;1.60;;
22713;SDS011;11524;50.846;4.326;2022-10-16T10:01:45;3.33;;;1.38;;
22713;SDS011;11524;50.846;4.326;2022-10-16T10:04:13;6.28;;;1.40;;
22713;SDS011;11524;50.846;4.326;2022-10-16T10:06:49;9.93;;;1.52;;
22713;SDS011;11524;50.846;4.326;2022-10-16T10:09:22;9.13;;;1.50;;
22713;SDS011;11524;50.846;4.326;2022-10-16T10:11:51;9.15;;;1.52;;
22713;SDS011;11524;50.846;4.326;2022-10-16T10:14:22;5.70;;;1.75;;
22713;SDS011;11524;50.846;4.326;2022-10-16T10:16:51;2.97;;;1.25;;
22713;SDS011;11524;50.846;4.326;2022-10-16T10:19:26;4.22;;;1.38;;
22713;SDS011;11524;50.846;4.326;2022-10-16T10:21:52;6.47;;;1.40;;
22713;SDS011;11524;50.846;4.326;2022-10-16T10:24:18;4.85;;;1.40;;
22713;SDS011;11524;50.846;4.326;2022-10-16T10:26:47;3.80;;;1.67;;
22713;SDS011;11524;50.846;4.326;2022-10-16T10:46:16;3.90;;;1.40;;
22713;SDS011;11524;50.846;4.326;2022-10-16T10:48:54;4.95;;;1.13;;
22713;SDS011;11524;50.846;4.326;2022-10-16T10:54:37;2.85;;;1.23;;
22713;SDS011;11524;50.846;4.326;2022-10-16T10:57:15;5.03;;;1.35;;
22713;SDS011;11524;50.846;4.326;2022-10-16T11:02:54;3.83;;;1.25;;
22713;SDS011;11524;50.846;4.326;2022-10-16T11:08:09;5.95;;;1.23;;
22713;SDS011;11524;50.846;4.326;2022-10-16T11:27:34;4.05;;;1.60;;
22713;SDS011;11524;50.846;4.326;2022-10-16T11:30:05;3.65;;;1.25;;
22713;SDS011;11524;50.846;4.326;2022-10-16T11:32:49;3.70;;;1.13;;
22713;SDS011;11524;50.846;4.326;2022-10-16T11:35:50;4.00;;;1.38;;
22713;SDS011;11524;50.846;4.326;2022-10-16T11:38:31;3.92;;;1.20;;
22713;SDS011;11524;50.846;4.326;2022-10-16T11:47:15;3.37;;;1.20;;
22713;SDS011;11524;50.846;4.326;2022-10-16T11:52:57;5.40;;;1.25;;
22713;SDS011;11524;50.846;4.326;2022-10-16T11:55:39;3.05;;;0.88;;
22713;SDS011;11524;50.846;4.326;2022-10-16T12:00:39;3.30;;;1.35;;
22713;SDS011;11524;50.846;4.326;2022-10-16T12:03:17;5.35;;;1.40;;
22713;SDS011;11524;50.846;4.326;2022-10-16T12:08:51;2.38;;;1.10;;
22713;SDS011;11524;50.846;4.326;2022-10-16T12:14:06;5.90;;;1.25;;
22713;SDS011;11524;50.846;4.326;2022-10-16T12:16:37;1.73;;;1.05;;
22713;SDS011;11524;50.846;4.326;2022-10-16T12:19:11;2.90;;;1.02;;
22713;SDS011;11524;50.846;4.326;2022-10-16T12:21:41;2.28;;;1.00;;
22713;SDS011;11524;50.846;4.326;2022-10-16T12:24:19;3.85;;;0.93;;
22713;SDS011;11524;50.846;4.326;2022-10-16T12:26:47;3.75;;;1.13;;
22713;SDS011;11524;50.846;4.326;2022-10-16T12:29:23;4.28;;;1.00;;
22713;SDS011;11524;50.846;4.326;2022-10-16T12:32:25;6.90;;;1.17;;
22713;SDS011;11524;50.846;4.326;2022-10-16T12:34:54;2.58;;;1.17;;
22713;SDS011;11524;50.846;4.326;2022-10-16T12:37:23;3.05;;;1.13;;
22713;SDS011;11524;50.846;4.326;2022-10-16T12:39:55;2.95;;;1.08;;
22713;SDS011;11524;50.846;4.326;2022-10-16T12:44:54;3.57;;;1.20;;
22713;SDS011;11524;50.846;4.326;2022-10-16T12:47:34;3.30;;;1.00;;
22713;SDS011;11524;50.846;4.326;2022-10-16T12:50:02;2.83;;;1.10;;
22713;SDS011;11524;50.846;4.326;2022-10-16T12:52:38;3.20;;;1.10;;
22713;SDS011;11524;50.846;4.326;2022-10-16T12:55:05;3.05;;;1.10;;
22713;SDS011;11524;50.846;4.326;2022-10-16T13:11:27;1.98;;;1.00;;
22713;SDS011;11524;50.846;4.326;2022-10-16T13:22:20;2.42;;;0.90;;
22713;SDS011;11524;50.846;4.326;2022-10-16T13:28:07;2.05;;;1.00;;
22713;SDS011;11524;50.846;4.326;2022-10-16T13:30:44;3.15;;;1.13;;
22713;SDS011;11524;50.846;4.326;2022-10-16T13:33:24;3.60;;;1.05;;
22713;SDS011;11524;50.846;4.326;2022-10-16T13:36:00;2.03;;;0.80;;
22713;SDS011;11524;50.846;4.326;2022-10-16T13:38:27;1.90;;;0.80;;
22713;SDS011;11524;50.846;4.326;2022-10-16T13:43:29;1.88;;;0.80;;
22713;SDS011;11524;50.846;4.326;2022-10-16T13:46:03;3.50;;;1.30;;
22713;SDS011;11524;50.846;4.326;2022-10-16T13:48:30;3.92;;;0.90;;
22713;SDS011;11524;50.846;4.326;2022-10-16T13:51:12;1.90;;;1.17;;
22713;SDS011;11524;50.846;4.326;2022-10-16T13:53:40;2.35;;;0.95;;
22713;SDS011;11524;50.846;4.326;2022-10-16T13:56:07;1.60;;;0.90;;
22713;SDS011;11524;50.846;4.326;2022-10-16T13:58:39;1.63;;;0.95;;
22713;SDS011;11524;50.846;4.326;2022-10-16T14:01:06;1.65;;;0.90;;
22713;SDS011;11524;50.846;4.326;2022-10-16T14:04:04;1.65;;;0.82;;
22713;SDS011;11524;50.846;4.326;2022-10-16T14:06:33;2.60;;;1.30;;
22713;SDS011;11524;50.846;4.326;2022-10-16T14:09:07;3.53;;;1.10;;
22713;SDS011;11524;50.846;4.326;2022-10-16T14:11:44;1.02;;;0.77;;
22713;SDS011;11524;50.846;4.326;2022-10-16T14:14:14;4.70;;;1.10;;
22713;SDS011;11524;50.846;4.326;2022-10-16T14:16:40;2.15;;;1.00;;
22713;SDS011;11524;50.846;4.326;2022-10-16T14:19:22;2.35;;;1.00;;
22713;SDS011;11524;50.846;4.326;2022-10-16T14:21:52;3.22;;;0.82;;
22713;SDS011;11524;50.846;4.326;2022-10-16T14:24:34;2.03;;;0.80;;
22713;SDS011;11524;50.846;4.326;2022-10-16T14:27:00;1.92;;;0.82;;
22713;SDS011;11524;50.846;4.326;2022-10-16T14:29:27;2.53;;;1.05;;
22713;SDS011;11524;50.846;4.326;2022-10-16T14:32:05;3.40;;;1.30;;
22713;SDS011;11524;50.846;4.326;2022-10-16T14:34:52;2.28;;;1.20;;
22713;SDS011;11524;50.846;4.326;2022-10-16T14:37:25;4.07;;;1.35;;
22713;SDS011;11524;50.846;4.326;2022-10-16T14:39:52;2.38;;;1.00;;
22713;SDS011;11524;50.846;4.326;2022-10-16T14:42:20;2.03;;;1.00;;
22713;SDS011;11524;50.846;4.326;2022-10-16T14:44:49;1.50;;;1.00;;
22713;SDS011;11524;50.846;4.326;2022-10-16T14:47:20;4.00;;;1.52;;
22713;SDS011;11524;50.846;4.326;2022-10-16T14:49:50;2.75;;;1.40;;
22713;SDS011;11524;50.846;4.326;2022-10-16T14:52:18;2.72;;;1.10;;
22713;SDS011;11524;50.846;4.326;2022-10-16T14:54:43;2.42;;;1.30;;
22713;SDS011;11524;50.846;4.326;2022-10-16T14:57:19;3.67;;;0.98;;
22713;SDS011;11524;50.846;4.326;2022-10-16T14:59:49;2.72;;;1.20;;
22713;SDS011;11524;50.846;4.326;2022-10-16T15:02:18;3.95;;;1.10;;
22713;SDS011;11524;50.846;4.326;2022-10-16T15:04:46;2.72;;;1.17;;
22713;SDS011;11524;50.846;4.326;2022-10-16T15:07:12;2.28;;;1.13;;
22713;SDS011;11524;50.846;4.326;2022-10-16T15:09:37;3.65;;;1.17;;
22713;SDS011;11524;50.846;4.326;2022-10-16T15:12:03;2.40;;;1.00;;
22713;SDS011;11524;50.846;4.326;2022-10-16T15:14:29;3.20;;;1.20;;
22713;SDS011;11524;50.846;4.326;2022-10-16T15:16:54;1.48;;;0.90;;
22713;SDS011;11524;50.846;4.326;2022-10-16T15:19:20;4.57;;;1.42;;
22713;SDS011;11524;50.846;4.326;2022-10-16T15:21:45;2.42;;;1.23;;
22713;SDS011;11524;50.846;4.326;2022-10-16T15:24:12;5.28;;;1.27;;
22713;SDS011;11524;50.846;4.326;2022-10-16T15:26:38;2.83;;;1.30;;
22713;SDS011;11524;50.846;4.326;2022-10-16T15:29:04;2.90;;;1.23;;
22713;SDS011;11524;50.846;4.326;2022-10-16T15:31:30;3.00;;;1.20;;
22713;SDS011;11524;50.846;4.326;2022-10-16T15:33:56;3.25;;;1.48;;
22713;SDS011;11524;50.846;4.326;2022-10-16T15:36:27;4.78;;;1.52;;
22713;SDS011;11524;50.846;4.326;2022-10-16T15:38:53;4.40;;;1.52;;
22713;SDS011;11524;50.846;4.326;2022-10-16T15:41:19;4.60;;;1.90;;
22713;SDS011;11524;50.846;4.326;2022-10-16T15:43:46;6.07;;;2.20;;
22713;SDS011;11524;50.846;4.326;2022-10-16T15:46:14;5.00;;;2.20;;
22713;SDS011;11524;50.846;4.326;2022-10-16T15:48:40;5.45;;;2.05;;
22713;SDS011;11524;50.846;4.326;2022-10-16T15:51:06;3.17;;;1.90;;
22713;SDS011;11524;50.846;4.326;2022-10-16T15:53:33;3.42;;;2.10;;
22713;SDS011;11524;50.846;4.326;2022-10-16T15:56:06;3.20;;;1.83;;
22713;SDS011;11524;50.846;4.326;2022-10-16T15:58:33;5.72;;;1.80;;
22713;SDS011;11524;50.846;4.326;2022-10-16T16:01:00;3.75;;;2.00;;
22713;SDS011;11524;50.846;4.326;2022-10-16T16:03:26;3.65;;;1.88;;
22713;SDS011;11524;50.846;4.326;2022-10-16T16:05:53;4.07;;;1.90;;
22713;SDS011;11524;50.846;4.326;2022-10-16T16:08:19;5.85;;;2.13;;
22713;SDS011;11524;50.846;4.326;2022-10-16T16:10:45;6.68;;;2.08;;
22713;SDS011;11524;50.846;4.326;2022-10-16T16:13:21;4.10;;;2.17;;
22713;SDS011;11524;50.846;4.326;2022-10-16T16:15:47;3.92;;;2.28;;
22713;SDS011;11524;50.846;4.326;2022-10-16T16:18:12;5.18;;;2.58;;
22713;SDS011;11524;50.846;4.326;2022-10-16T16:20:38;7.00;;;2.40;;
22713;SDS011;11524;50.846;4.326;2022-10-16T16:23:03;5.32;;;1.83;;
22713;SDS011;11524;50.846;4.326;2022-10-16T16:25:29;3.67;;;1.80;;
22713;SDS011;11524;50.846;4.326;2022-10-16T16:27:54;4.15;;;1.60;;
22713;SDS011;11524;50.846;4.326;2022-10-16T16:30:20;2.97;;;1.50;;
22713;SDS011;11524;50.846;4.326;2022-10-16T16:32:46;3.50;;;1.70;;
22713;SDS011;11524;50.846;4.326;2022-10-16T16:35:11;3.60;;;1.60;;
22713;SDS011;11524;50.846;4.326;2022-10-16T16:37:37;4.35;;;1.30;;
22713;SDS011;11524;50.846;4.326;2022-10-16T16:40:03;2.95;;;1.48;;
22713;SDS011;11524;50.846;4.326;2022-10-16T16:42:28;3.90;;;1.83;;
22713;SDS011;11524;50.846;4.326;2022-10-16T16:44:54;3.33;;;2.10;;
22713;SDS011;11524;50.846;4.326;2022-10-16T16:47:20;3.70;;;1.75;;
22713;SDS011;11524;50.846;4.326;2022-10-16T16:49:45;3.50;;;1.65;;
22713;SDS011;11524;50.846;4.326;2022-10-16T16:52:11;4.30;;;1.95;;
22713;SDS011;11524;50.846;4.326;2022-10-16T16:54:38;4.78;;;1.70;;
22713;SDS011;11524;50.846;4.326;2022-10-16T16:57:03;5.90;;;2.20;;
22713;SDS011;11524;50.846;4.326;2022-10-16T16:59:30;7.45;;;2.42;;
22713;SDS011;11524;50.846;4.326;2022-10-16T17:01:57;6.53;;;1.90;;
22713;SDS011;11524;50.846;4.326;2022-10-16T17:04:28;3.75;;;1.98;;
22713;SDS011;11524;50.846;4.326;2022-10-16T17:06:54;5.00;;;1.83;;
22713;SDS011;11524;50.846;4.326;2022-10-16T17:09:20;4.45;;;2.28;;
22713;SDS011;11524;50.846;4.326;2022-10-16T17:11:46;5.68;;;2.05;;